Time;durP1;ratioP1;P1;durP2;ratioP2;P2;SDS_P1;SDS_P2;PMS_P1;PMS_P2;Temp;Humidity;BMP_temperature;BMP_pressure;BME280_temperature;BME280_humidity;BME280_pressure;Samples;Min_cycle;Max_cycle;Signal;HPM_P1;HPM_P2
2022/06/04 00:00:09;;;;;;;6.25;5.38;;;;;;;;;;2106904;28;20048;-42
2022/06/04 00:01:10;;;;;;;6.68;5.50;;;;;;;;;;2106874;28;20127;-42
2022/06/04 00:02:11;;;;;;;5.88;5.07;;;;;;;;;;2106761;28;20048;-42
2022/06/04 00:03:13;;;;;;;7.30;5.72;;;;;;;;;;2107031;28;20077;-42
2022/06/04 00:04:15;;;;;;;7.97;5.32;;;;;;;;;;2106944;28;20127;-42
2022/06/04 00:05:18;;;;;;;6.03;5.10;;;;;;;;;;2107024;28;20134;-42
2022/06/04 00:06:18;;;;;;;6.95;4.97;;;;;;;;;;2106818;28;20198;-42
2022/06/04 00:07:20;;;;;;;6.68;5.70;;;;;;;;;;2106663;28;20122;-42
2022/06/04 00:08:21;;;;;;;5.95;4.90;;;;;;;;;;2106853;28;20048;-42
2022/06/04 00:09:23;;;;;;;5.93;5.30;;;;;;;;;;2106753;28;20403;-42
2022/06/04 00:15:55;;;;;;;5.70;5.07;;;;;;;;;;2072615;28;20458;-41
2022/06/04 00:16:56;;;;;;;5.97;5.38;;;;;;;;;;2072704;28;20065;-42
2022/06/04 00:17:57;;;;;;;6.63;5.70;;;;;;;;;;2073046;28;20041;-42
2022/06/04 00:18:59;;;;;;;7.40;5.97;;;;;;;;;;2098579;28;20166;-42
2022/06/04 00:20:02;;;;;;;5.65;4.80;;;;;;;;;;2098572;28;20052;-43
2022/06/04 00:21:03;;;;;;;7.75;6.13;;;;;;;;;;2098438;28;20135;-45
2022/06/04 00:22:04;;;;;;;6.40;5.53;;;;;;;;;;2098454;28;20148;-43
2022/06/04 00:23:06;;;;;;;6.45;5.38;;;;;;;;;;2098453;28;20127;-43
2022/06/04 00:24:07;;;;;;;6.45;5.55;;;;;;;;;;2098454;28;20135;-43
2022/06/04 00:25:10;;;;;;;7.78;5.75;;;;;;;;;;2098382;28;20072;-43
2022/06/04 00:26:13;;;;;;;8.00;5.28;;;;;;;;;;2098519;28;20127;-43
2022/06/04 00:27:15;;;;;;;6.60;5.13;;;;;;;;;;2098151;28;20572;-43
2022/06/04 00:28:17;;;;;;;6.65;5.43;;;;;;;;;;2098464;28;20052;-44
2022/06/04 00:29:21;;;;;;;6.25;5.30;;;;;;;;;;2098444;28;20056;-43
2022/06/04 00:30:22;;;;;;;7.25;5.78;;;;;;;;;;2098208;28;20594;-44
2022/06/04 00:31:24;;;;;;;6.17;5.57;;;;;;;;;;2098323;28;20041;-43
2022/06/04 00:32:25;;;;;;;6.88;5.53;;;;;;;;;;2098464;28;20044;-43
2022/06/04 00:33:26;;;;;;;7.60;5.85;;;;;;;;;;2098189;28;20375;-42
2022/06/04 00:34:27;;;;;;;6.72;5.15;;;;;;;;;;2098426;28;20149;-43
2022/06/04 00:35:28;;;;;;;7.32;6.20;;;;;;;;;;2098422;28;20051;-43
2022/06/04 00:36:31;;;;;;;8.03;6.30;;;;;;;;;;2098226;28;20404;-44
2022/06/04 00:37:32;;;;;;;6.35;5.28;;;;;;;;;;2098358;28;20040;-44
2022/06/04 00:38:34;;;;;;;7.22;5.40;;;;;;;;;;2098491;28;20124;-43
2022/06/04 00:39:35;;;;;;;6.38;5.55;;;;;;;;;;2098222;28;20581;-43
2022/06/04 00:40:43;;;;;;;6.40;5.33;;;;;;;;;;2098578;28;20044;-44
2022/06/04 00:41:47;;;;;;;7.70;4.90;;;;;;;;;;2098308;28;20041;-43
2022/06/04 00:42:48;;;;;;;8.38;5.63;;;;;;;;;;2098184;28;20569;-43
2022/06/04 00:43:56;;;;;;;8.43;5.20;;;;;;;;;;2098468;28;20049;-43
2022/06/04 00:45:16;;;;;;;6.28;5.50;;;;;;;;;;2098186;28;20127;-43
2022/06/04 00:46:50;;;;;;;6.43;4.60;;;;;;;;;;2098218;28;20139;-43
2022/06/04 00:47:51;;;;;;;6.72;5.30;;;;;;;;;;2064589;28;20053;-45
2022/06/04 00:48:52;;;;;;;6.28;5.32;;;;;;;;;;2064434;28;20162;-44
2022/06/04 00:49:54;;;;;;;6.57;5.40;;;;;;;;;;2064404;28;20095;-45
2022/06/04 00:50:55;;;;;;;7.00;5.72;;;;;;;;;;2064260;28;20054;-45
2022/06/04 00:51:57;;;;;;;5.57;4.97;;;;;;;;;;2064419;28;20150;-45
2022/06/04 00:53:00;;;;;;;5.90;5.22;;;;;;;;;;2064445;28;20144;-45
2022/06/04 00:54:02;;;;;;;6.03;5.30;;;;;;;;;;2095883;28;20532;-45
2022/06/04 00:55:04;;;;;;;6.53;5.40;;;;;;;;;;2097832;28;20386;-45
2022/06/04 00:56:12;;;;;;;7.75;5.75;;;;;;;;;;2098061;28;20053;-45
2022/06/04 00:57:30;;;;;;;6.88;5.15;;;;;;;;;;2098064;28;20387;-45
2022/06/04 00:58:37;;;;;;;5.70;4.80;;;;;;;;;;2098145;28;20124;-45
2022/06/04 00:59:42;;;;;;;7.82;5.45;;;;;;;;;;2098270;28;20140;-46
2022/06/04 01:00:46;;;;;;;6.20;5.05;;;;;;;;;;2097943;28;20465;-45
2022/06/04 01:01:51;;;;;;;5.32;4.78;;;;;;;;;;2098218;28;20044;-45
2022/06/04 01:03:10;;;;;;;6.13;5.50;;;;;;;;;;2098124;28;20195;-45
2022/06/04 01:04:47;;;;;;;8.40;5.30;;;;;;;;;;2104839;28;20051;-45
2022/06/04 01:05:45;;;;;;;5.80;4.97;;;;;;;;;;2106399;28;20131;-45
2022/06/04 01:06:53;;;;;;;6.28;4.93;;;;;;;;;;2106457;28;20488;-45
2022/06/04 01:08:06;;;;;;;6.10;5.20;;;;;;;;;;2106423;28;20428;-44
2022/06/04 01:09:28;;;;;;;6.43;5.03;;;;;;;;;;2106485;28;20481;-45
2022/06/04 01:10:38;;;;;;;6.63;5.13;;;;;;;;;;2099855;28;20077;-45
2022/06/04 01:13:09;;;;;;;6.70;4.55;;;;;;;;;;2097166;28;20680;-45
2022/06/04 01:14:14;;;;;;;5.20;4.50;;;;;;;;;;2097988;28;20493;-45
2022/06/04 01:15:19;;;;;;;5.18;4.65;;;;;;;;;;2098036;28;20409;-44
2022/06/04 01:16:24;;;;;;;5.90;4.88;;;;;;;;;;2097941;28;20088;-45
2022/06/04 01:17:31;;;;;;;6.75;4.68;;;;;;;;;;2098109;28;20080;-44
2022/06/04 01:18:37;;;;;;;5.95;5.07;;;;;;;;;;2098034;28;20179;-44
2022/06/04 01:19:49;;;;;;;6.53;4.57;;;;;;;;;;2098025;28;20489;-44
2022/06/04 01:20:54;;;;;;;7.35;4.80;;;;;;;;;;2097963;28;20584;-44
2022/06/04 01:22:03;;;;;;;5.70;4.55;;;;;;;;;;2098033;28;20048;-43
2022/06/04 01:23:25;;;;;;;5.57;4.22;;;;;;;;;;2097966;28;20564;-43
2022/06/04 01:24:37;;;;;;;5.32;4.47;;;;;;;;;;2098097;28;20124;-43
2022/06/04 01:25:47;;;;;;;5.57;4.68;;;;;;;;;;2097997;28;20097;-44
2022/06/04 01:27:00;;;;;;;5.05;4.50;;;;;;;;;;2098109;28;20132;-44
2022/06/04 01:28:01;;;;;;;;;;;;;;;;;;2098302;28;20083;-44
2022/06/04 01:29:05;;;;;;;5.75;4.65;;;;;;;;;;2098129;28;20285;-44
2022/06/04 01:30:08;;;;;;;6.60;4.85;;;;;;;;;;2097910;28;20538;-44
2022/06/04 01:31:10;;;;;;;5.47;4.38;;;;;;;;;;2097865;28;20044;-43
2022/06/04 01:32:16;;;;;;;5.35;4.55;;;;;;;;;;2097862;28;20177;-43
2022/06/04 01:33:19;;;;;;;6.80;5.32;;;;;;;;;;2097992;28;20083;-43
2022/06/04 01:34:24;;;;;;;5.53;4.78;;;;;;;;;;2097905;28;20138;-43
2022/06/04 01:35:29;;;;;;;5.32;4.07;;;;;;;;;;2098110;28;20049;-45
2022/06/04 01:36:32;;;;;;;6.20;4.88;;;;;;;;;;2098114;28;20051;-44
2022/06/04 01:37:35;;;;;;;6.85;4.47;;;;;;;;;;2097993;28;20044;-43
2022/06/04 01:38:38;;;;;;;6.43;4.72;;;;;;;;;;2097943;28;20127;-44
2022/06/04 01:41:04;;;;;;;5.70;4.85;;;;;;;;;;2097836;28;20052;-44
2022/06/04 01:42:07;;;;;;;6.53;5.55;;;;;;;;;;2098228;28;20052;-44
2022/06/04 01:43:11;;;;;;;7.05;5.30;;;;;;;;;;2097873;28;20052;-44
2022/06/04 01:44:15;;;;;;;6.03;5.00;;;;;;;;;;2097793;28;20079;-44
2022/06/04 01:45:18;;;;;;;6.10;5.40;;;;;;;;;;2097952;28;20127;-43
2022/06/04 01:46:20;;;;;;;6.22;5.18;;;;;;;;;;2097948;28;20047;-43
2022/06/04 01:47:22;;;;;;;6.35;4.80;;;;;;;;;;2097911;28;20098;-43
2022/06/04 01:48:24;;;;;;;6.50;5.03;;;;;;;;;;2098193;28;20090;-43
2022/06/04 01:49:28;;;;;;;6.63;5.03;;;;;;;;;;2097861;28;20132;-43
2022/06/04 01:50:32;;;;;;;5.35;4.10;;;;;;;;;;2098050;28;20109;-44
2022/06/04 01:51:33;;;;;;;6.32;4.70;;;;;;;;;;2097739;28;20218;-43
2022/06/04 01:52:36;;;;;;;4.63;4.13;;;;;;;;;;2097746;28;20076;-43
2022/06/04 01:53:39;;;;;;;5.75;4.70;;;;;;;;;;2097842;28;20138;-44
2022/06/04 01:54:43;;;;;;;5.70;4.70;;;;;;;;;;2097774;28;20089;-44
2022/06/04 01:55:49;;;;;;;6.43;5.20;;;;;;;;;;2097797;28;20131;-43
2022/06/04 01:56:52;;;;;;;6.43;4.78;;;;;;;;;;2097835;28;20045;-44
2022/06/04 01:57:56;;;;;;;6.13;4.90;;;;;;;;;;2098023;28;20052;-45
2022/06/04 01:58:59;;;;;;;7.15;4.65;;;;;;;;;;2097855;28;20135;-45
2022/06/04 02:00:01;;;;;;;4.60;4.05;;;;;;;;;;2100714;28;20051;-45
2022/06/04 02:01:05;;;;;;;7.90;4.90;;;;;;;;;;2105930;28;20554;-45
2022/06/04 02:02:09;;;;;;;5.90;5.13;;;;;;;;;;2106183;28;20076;-46
2022/06/04 02:03:12;;;;;;;6.30;4.95;;;;;;;;;;2106169;28;20047;-46
2022/06/04 02:04:16;;;;;;;5.15;4.65;;;;;;;;;;2105940;28;20516;-47
2022/06/04 02:05:21;;;;;;;5.95;4.90;;;;;;;;;;2106206;28;20055;-45
2022/06/04 02:06:24;;;;;;;4.75;4.32;;;;;;;;;;2105219;28;20510;-45
2022/06/04 02:07:30;;;;;;;5.68;4.85;;;;;;;;;;2105908;28;20407;-45
2022/06/04 02:08:34;;;;;;;5.22;4.40;;;;;;;;;;2106074;28;20130;-46
2022/06/04 02:09:36;;;;;;;5.25;4.45;;;;;;;;;;2106308;28;20044;-44
2022/06/04 02:10:37;;;;;;;;;;;;;;;;;;2106451;28;20123;-44
2022/06/04 02:11:51;;;;;;;5.13;4.55;;;;;;;;;;2098466;28;20377;-43
2022/06/04 02:12:55;;;;;;;5.38;4.60;;;;;;;;;;2097876;28;20401;-44
2022/06/04 02:13:59;;;;;;;7.30;4.53;;;;;;;;;;2097528;28;20136;-44
2022/06/04 02:15:03;;;;;;;5.80;4.28;;;;;;;;;;2097811;28;20138;-45
2022/06/04 02:16:08;;;;;;;5.63;4.63;;;;;;;;;;2097776;28;20107;-43
2022/06/04 02:17:13;;;;;;;5.18;4.65;;;;;;;;;;2097977;28;20409;-46
2022/06/04 02:18:14;;;;;;;5.45;4.45;;;;;;;;;;2097739;28;20048;-45
2022/06/04 02:19:15;;;;;;;5.70;4.40;;;;;;;;;;2097538;28;20052;-46
2022/06/04 02:20:17;;;;;;;5.57;4.57;;;;;;;;;;2097567;28;20045;-45
2022/06/04 02:21:18;;;;;;;5.80;4.38;;;;;;;;;;2097780;28;20135;-44
2022/06/04 02:22:19;;;;;;;5.05;4.15;;;;;;;;;;2097552;28;20128;-44
2022/06/04 02:23:20;;;;;;;6.90;4.00;;;;;;;;;;2097686;28;20455;-44
2022/06/04 02:24:22;;;;;;;4.57;4.00;;;;;;;;;;2097582;28;20295;-45
2022/06/04 02:25:23;;;;;;;5.28;3.75;;;;;;;;;;2097865;28;20056;-44
2022/06/04 02:26:25;;;;;;;5.35;4.25;;;;;;;;;;2097460;28;20560;-44
2022/06/04 02:27:26;;;;;;;4.30;3.88;;;;;;;;;;2097721;28;20056;-44
2022/06/04 02:28:28;;;;;;;4.93;3.70;;;;;;;;;;2097532;28;20128;-44
2022/06/04 02:29:29;;;;;;;;;;;;;;;;;;2097962;28;20531;-44
2022/06/04 02:30:36;;;;;;;4.88;3.97;;;;;;;;;;2097507;28;19951;-44
2022/06/04 02:31:42;;;;;;;4.05;3.63;;;;;;;;;;2097569;28;20051;-44
2022/06/04 02:32:51;;;;;;;4.63;4.15;;;;;;;;;;2097570;28;20099;-43
2022/06/04 02:33:55;;;;;;;5.90;3.90;;;;;;;;;;2097474;28;20132;-44
2022/06/04 02:35:01;;;;;;;4.45;3.78;;;;;;;;;;2097401;28;20481;-44
2022/06/04 02:36:04;;;;;;;4.70;3.88;;;;;;;;;;2098014;28;20119;-43
2022/06/04 02:37:08;;;;;;;4.15;3.42;;;;;;;;;;2097577;28;20127;-43
2022/06/04 02:38:15;;;;;;;5.50;3.85;;;;;;;;;;2097493;28;20127;-44
2022/06/04 02:39:24;;;;;;;4.45;3.88;;;;;;;;;;2097653;28;20169;-44
2022/06/04 02:40:26;;;;;;;3.90;3.50;;;;;;;;;;2097743;28;20513;-44
2022/06/04 02:41:29;;;;;;;5.03;3.95;;;;;;;;;;2097472;28;20133;-44
2022/06/04 02:42:33;;;;;;;4.63;3.85;;;;;;;;;;2097421;28;20050;-44
2022/06/04 02:43:40;;;;;;;4.78;3.90;;;;;;;;;;2097551;28;20045;-43
2022/06/04 02:44:45;;;;;;;4.22;3.75;;;;;;;;;;2097486;28;20050;-44
2022/06/04 02:45:50;;;;;;;4.22;3.60;;;;;;;;;;2097309;28;20483;-44
2022/06/04 02:46:54;;;;;;;7.53;3.83;;;;;;;;;;2097442;28;20075;-44
2022/06/04 02:47:57;;;;;;;9.55;3.85;;;;;;;;;;2097740;28;20053;-42
2022/06/04 02:49:01;;;;;;;4.70;3.88;;;;;;;;;;2097418;28;20054;-44
2022/06/04 02:50:04;;;;;;;5.32;4.20;;;;;;;;;;2097662;28;20139;-44
2022/06/04 02:51:08;;;;;;;5.97;3.80;;;;;;;;;;2097721;28;20107;-44
2022/06/04 02:52:11;;;;;;;5.40;4.10;;;;;;;;;;2097514;28;20127;-44
2022/06/04 02:53:13;;;;;;;3.85;3.03;;;;;;;;;;2097346;28;20131;-43
2022/06/04 02:54:18;;;;;;;4.75;3.88;;;;;;;;;;2097605;28;20139;-44
2022/06/04 02:55:21;;;;;;;4.45;3.25;;;;;;;;;;2097393;28;20487;-44
2022/06/04 02:56:26;;;;;;;3.55;3.20;;;;;;;;;;2101276;28;20090;-43
2022/06/04 02:57:29;;;;;;;8.30;3.95;;;;;;;;;;2106044;28;20052;-44
2022/06/04 02:58:31;;;;;;;5.65;3.80;;;;;;;;;;2105693;28;20121;-43
2022/06/04 02:59:34;;;;;;;4.75;3.78;;;;;;;;;;2105864;28;20130;-44
2022/06/04 03:00:35;;;;;;;4.72;3.47;;;;;;;;;;2105690;28;20141;-44
2022/06/04 03:01:39;;;;;;;4.40;3.50;;;;;;;;;;2105745;28;20046;-44
2022/06/04 03:02:40;;;;;;;4.70;3.15;;;;;;;;;;2105540;28;20485;-44
2022/06/04 03:03:41;;;;;;;5.50;4.15;;;;;;;;;;2106039;28;20074;-44
2022/06/04 03:04:44;;;;;;;3.78;3.10;;;;;;;;;;2105728;28;20044;-45
2022/06/04 03:05:52;;;;;;;4.20;3.63;;;;;;;;;;2105796;28;20055;-44
2022/06/04 03:06:54;;;;;;;5.30;4.07;;;;;;;;;;2105699;28;20046;-44
2022/06/04 03:07:58;;;;;;;6.03;3.60;;;;;;;;;;2105812;28;20077;-44
2022/06/04 03:08:59;;;;;;;4.78;3.83;;;;;;;;;;2105813;28;20052;-44
2022/06/04 03:10:05;;;;;;;6.97;3.75;;;;;;;;;;2105848;28;20059;-44
2022/06/04 03:11:06;;;;;;;4.15;3.55;;;;;;;;;;2103428;28;20481;-44
2022/06/04 03:12:07;;;;;;;4.22;3.25;;;;;;;;;;2097664;28;20123;-45
2022/06/04 03:13:09;;;;;;;4.35;3.45;;;;;;;;;;2097371;28;20132;-46
2022/06/04 03:14:10;;;;;;;3.05;2.70;;;;;;;;;;2097274;28;20132;-45
2022/06/04 03:15:12;;;;;;;3.78;3.30;;;;;;;;;;2097353;28;20139;-45
2022/06/04 03:16:13;;;;;;;3.95;3.22;;;;;;;;;;2097360;28;20539;-43
2022/06/04 03:17:15;;;;;;;3.60;3.03;;;;;;;;;;2097615;28;20045;-44
2022/06/04 03:18:17;;;;;;;4.70;3.28;;;;;;;;;;2098493;28;20127;-44
2022/06/04 03:19:18;;;;;;;4.47;3.55;;;;;;;;;;2098884;28;20053;-44
2022/06/04 03:20:22;;;;;;;3.57;2.93;;;;;;;;;;2098747;28;20101;-43
2022/06/04 03:21:22;;;;;;;4.57;3.00;;;;;;;;;;2099024;28;20052;-43
2022/06/04 03:22:24;;;;;;;4.17;3.00;;;;;;;;;;2098790;28;20056;-44
2022/06/04 03:23:25;;;;;;;3.65;2.80;;;;;;;;;;2098649;28;20044;-44
2022/06/04 03:24:26;;;;;;;4.93;3.03;;;;;;;;;;2098814;28;20124;-44
2022/06/04 03:25:30;;;;;;;2.95;2.35;;;;;;;;;;2098749;28;20099;-43
2022/06/04 03:26:31;;;;;;;4.20;2.25;;;;;;;;;;2098677;28;20041;-44
2022/06/04 03:27:32;;;;;;;3.30;2.70;;;;;;;;;;2098860;28;20074;-43
2022/06/04 03:28:34;;;;;;;3.67;2.43;;;;;;;;;;2098708;28;20591;-44
2022/06/04 03:29:35;;;;;;;5.78;2.90;;;;;;;;;;2098572;28;20237;-44
2022/06/04 03:30:38;;;;;;;3.47;2.70;;;;;;;;;;2098906;28;20515;-43
2022/06/04 03:31:39;;;;;;;3.63;2.58;;;;;;;;;;2098808;28;20097;-44
2022/06/04 03:32:41;;;;;;;2.77;2.07;;;;;;;;;;2098591;28;20066;-42
2022/06/04 03:33:41;;;;;;;4.05;2.97;;;;;;;;;;2098669;28;20356;-43
2022/06/04 03:34:43;;;;;;;3.33;2.77;;;;;;;;;;2098855;28;20048;-45
2022/06/04 03:35:44;;;;;;;3.30;2.50;;;;;;;;;;2098609;28;20174;-45
2022/06/04 03:36:45;;;;;;;4.17;2.60;;;;;;;;;;2098655;28;20447;-45
2022/06/04 03:37:46;;;;;;;3.92;2.80;;;;;;;;;;2098758;28;20292;-44
2022/06/04 03:38:47;;;;;;;3.93;2.60;;;;;;;;;;2098541;28;20044;-45
2022/06/04 03:39:48;;;;;;;3.70;3.03;;;;;;;;;;2099002;28;20139;-44
2022/06/04 03:40:49;;;;;;;3.17;2.67;;;;;;;;;;2098506;28;20542;-43
2022/06/04 03:41:50;;;;;;;4.00;2.75;;;;;;;;;;2098839;28;20051;-44
2022/06/04 03:42:52;;;;;;;3.10;2.60;;;;;;;;;;2098768;28;20468;-43
2022/06/04 03:43:53;;;;;;;3.95;2.90;;;;;;;;;;2098793;28;20281;-43
2022/06/04 03:44:54;;;;;;;3.05;2.55;;;;;;;;;;2098853;28;20109;-46
2022/06/04 03:45:56;;;;;;;3.28;2.42;;;;;;;;;;2098648;28;20185;-46
2022/06/04 03:46:57;;;;;;;3.55;2.72;;;;;;;;;;2099094;28;20045;-43
2022/06/04 03:47:58;;;;;;;3.60;2.60;;;;;;;;;;2098685;28;20048;-43
2022/06/04 03:48:59;;;;;;;5.00;2.70;;;;;;;;;;2098750;28;20153;-42
2022/06/04 03:50:01;;;;;;;5.15;2.47;;;;;;;;;;2098497;28;20292;-42
2022/06/04 03:51:02;;;;;;;3.05;2.60;;;;;;;;;;2098567;28;20048;-43
2022/06/04 03:52:03;;;;;;;4.03;2.05;;;;;;;;;;2098535;28;20040;-43
2022/06/04 03:53:05;;;;;;;3.00;2.40;;;;;;;;;;2106413;28;20135;-42
2022/06/04 03:54:06;;;;;;;3.30;2.10;;;;;;;;;;2106716;28;20518;-43
2022/06/04 03:55:07;;;;;;;3.40;2.22;;;;;;;;;;2107086;28;20056;-42
2022/06/04 03:56:08;;;;;;;2.35;2.15;;;;;;;;;;2107081;28;20135;-44
2022/06/04 03:58:30;;;;;;;2.90;2.20;;;;;;;;;;2106897;28;20131;-46
2022/06/04 03:59:31;;;;;;;3.70;2.25;;;;;;;;;;2106822;28;20465;-44
2022/06/04 04:00:41;;;;;;;2.55;2.15;;;;;;;;;;2107132;28;20528;-45
2022/06/04 04:01:52;;;;;;;2.33;1.90;;;;;;;;;;2106870;28;20044;-45
2022/06/04 04:02:55;;;;;;;3.55;2.30;;;;;;;;;;2107137;28;20123;-45
2022/06/04 04:03:57;;;;;;;3.13;2.20;;;;;;;;;;2106715;28;20450;-43
2022/06/04 04:04:58;;;;;;;4.75;2.10;;;;;;;;;;2106954;28;20058;-43
2022/06/04 04:05:59;;;;;;;2.38;1.73;;;;;;;;;;2106660;28;20084;-43
2022/06/04 04:07:00;;;;;;;3.85;1.88;;;;;;;;;;2106991;28;20056;-43
2022/06/04 04:08:02;;;;;;;2.57;1.80;;;;;;;;;;2106773;28;20489;-44
2022/06/04 04:09:09;;;;;;;4.35;2.05;;;;;;;;;;2106929;28;20131;-43
2022/06/04 04:10:11;;;;;;;2.50;1.65;;;;;;;;;;2106754;28;20189;-43
2022/06/04 04:11:13;;;;;;;3.22;2.13;;;;;;;;;;2103879;28;20052;-43
2022/06/04 04:12:15;;;;;;;2.45;1.98;;;;;;;;;;2098392;28;20131;-44
2022/06/04 04:13:18;;;;;;;2.08;1.80;;;;;;;;;;2098891;28;20079;-43
2022/06/04 04:14:19;;;;;;;2.45;2.00;;;;;;;;;;2098279;28;20136;-42
2022/06/04 04:15:21;;;;;;;2.67;1.73;;;;;;;;;;2098418;28;20059;-42
2022/06/04 04:16:22;;;;;;;2.15;1.88;;;;;;;;;;2098378;28;20123;-42
2022/06/04 04:17:23;;;;;;;;;;;;;;;;;;2098922;28;20076;-43
2022/06/04 04:18:25;;;;;;;1.95;1.55;;;;;;;;;;2098361;28;20325;-43
2022/06/04 04:19:28;;;;;;;;;;;;;;;;;;2098942;28;20128;-43
2022/06/04 04:20:31;;;;;;;1.90;1.67;;;;;;;;;;2098367;28;20434;-43
2022/06/04 04:21:38;;;;;;;2.50;1.70;;;;;;;;;;2098417;28;20124;-45
2022/06/04 04:22:39;;;;;;;2.30;1.98;;;;;;;;;;2098599;28;20048;-45
2022/06/04 04:23:41;;;;;;;2.58;1.95;;;;;;;;;;2098521;28;20044;-45
2022/06/04 04:24:42;;;;;;;3.90;2.25;;;;;;;;;;2098436;28;20072;-45
2022/06/04 04:25:44;;;;;;;2.17;1.67;;;;;;;;;;2098385;28;20281;-45
2022/06/04 04:26:45;;;;;;;3.28;1.85;;;;;;;;;;2098335;28;20127;-45
2022/06/04 04:27:46;;;;;;;2.33;1.63;;;;;;;;;;2098250;28;20041;-44
2022/06/04 04:28:47;;;;;;;;;;;;;;;;;;2098993;28;20174;-43
2022/06/04 04:29:48;;;;;;;1.95;1.55;;;;;;;;;;2097705;28;19924;-43
2022/06/04 04:30:49;;;;;;;3.05;1.75;;;;;;;;;;2098432;28;20186;-43
2022/06/04 04:31:51;;;;;;;2.00;1.60;;;;;;;;;;2098544;28;20493;-42
2022/06/04 04:32:52;;;;;;;1.67;1.50;;;;;;;;;;2098391;28;20068;-43
2022/06/04 04:33:54;;;;;;;1.92;1.67;;;;;;;;;;2098128;28;20580;-43
2022/06/04 04:34:54;;;;;;;;;;;;;;;;;;2098874;28;20485;-45
2022/06/04 04:35:56;;;;;;;2.45;2.05;;;;;;;;;;2098202;28;20010;-45
2022/06/04 04:36:57;;;;;;;2.03;1.58;;;;;;;;;;2098192;28;20511;-45
2022/06/04 04:37:58;;;;;;;2.40;1.73;;;;;;;;;;2098373;28;20568;-45
2022/06/04 04:38:59;;;;;;;1.98;1.45;;;;;;;;;;2098451;28;20048;-45
2022/06/04 04:40:01;;;;;;;3.60;1.83;;;;;;;;;;2098284;28;20059;-45
2022/06/04 04:41:02;;;;;;;2.97;1.30;;;;;;;;;;2098361;28;20131;-45
2022/06/04 04:42:03;;;;;;;3.08;1.50;;;;;;;;;;2098241;28;20053;-45
2022/06/04 04:43:04;;;;;;;2.22;1.48;;;;;;;;;;2098264;28;20469;-45
2022/06/04 04:44:06;;;;;;;2.35;1.80;;;;;;;;;;2098260;28;20051;-45
2022/06/04 04:45:08;;;;;;;2.33;1.40;;;;;;;;;;2098649;28;20127;-45
2022/06/04 04:46:10;;;;;;;2.95;1.77;;;;;;;;;;2098177;28;20127;-45
2022/06/04 04:47:11;;;;;;;1.92;1.48;;;;;;;;;;2098315;28;20051;-45
2022/06/04 04:48:14;;;;;;;5.17;1.67;;;;;;;;;;2098171;28;20156;-45
2022/06/04 04:49:16;;;;;;;2.08;1.35;;;;;;;;;;2105461;28;20086;-46
2022/06/04 04:50:18;;;;;;;2.65;1.85;;;;;;;;;;2106765;28;20135;-43
2022/06/04 04:51:21;;;;;;;2.90;1.88;;;;;;;;;;2106590;28;20131;-43
2022/06/04 04:52:22;;;;;;;1.95;1.55;;;;;;;;;;2106522;28;20072;-43
2022/06/04 04:53:23;;;;;;;1.80;1.60;;;;;;;;;;2107126;28;20322;-46
2022/06/04 04:54:24;;;;;;;1.65;1.38;;;;;;;;;;2106510;28;20055;-48
2022/06/04 04:55:26;;;;;;;4.10;1.60;;;;;;;;;;2106591;28;20040;-45
2022/06/04 04:56:27;;;;;;;1.48;1.27;;;;;;;;;;2106733;28;20055;-44
2022/06/04 04:57:28;;;;;;;1.80;1.35;;;;;;;;;;2106651;28;20155;-42
2022/06/04 04:58:29;;;;;;;1.88;1.38;;;;;;;;;;2106432;28;20399;-42
2022/06/04 04:59:31;;;;;;;1.77;1.37;;;;;;;;;;2106747;28;20044;-45
2022/06/04 05:00:32;;;;;;;1.80;1.40;;;;;;;;;;2106834;28;20494;-45
2022/06/04 05:01:33;;;;;;;1.85;1.50;;;;;;;;;;2106392;28;20160;-45
2022/06/04 05:02:35;;;;;;;1.95;1.50;;;;;;;;;;2106945;28;20044;-43
2022/06/04 05:03:36;;;;;;;2.22;1.42;;;;;;;;;;2107034;28;20125;-42
2022/06/04 05:04:37;;;;;;;1.70;1.35;;;;;;;;;;2106744;28;20066;-45
2022/06/04 05:05:39;;;;;;;3.53;1.65;;;;;;;;;;2106377;28;20415;-44
2022/06/04 05:06:40;;;;;;;1.60;1.40;;;;;;;;;;2106516;28;20040;-44
2022/06/04 05:07:42;;;;;;;1.60;1.40;;;;;;;;;;2106695;28;20123;-44
2022/06/04 05:08:43;;;;;;;1.73;1.25;;;;;;;;;;2106363;28;20047;-45
2022/06/04 05:09:44;;;;;;;4.93;1.40;;;;;;;;;;2106575;28;20123;-44
2022/06/04 05:10:46;;;;;;;1.95;1.38;;;;;;;;;;2106125;28;20471;-45
2022/06/04 05:11:48;;;;;;;2.45;1.23;;;;;;;;;;2098758;28;20051;-45
2022/06/04 05:12:52;;;;;;;2.38;1.65;;;;;;;;;;2098286;28;20173;-45
2022/06/04 05:13:53;;;;;;;4.95;1.40;;;;;;;;;;2097958;28;20051;-45
2022/06/04 05:14:54;;;;;;;3.15;1.80;;;;;;;;;;2097971;28;20494;-45
2022/06/04 05:15:56;;;;;;;1.48;1.38;;;;;;;;;;2097947;28;20044;-45
2022/06/04 05:16:57;;;;;;;2.00;1.38;;;;;;;;;;2098103;28;20053;-46
2022/06/04 05:17:58;;;;;;;2.87;1.63;;;;;;;;;;2098088;28;20545;-45
2022/06/04 05:19:01;;;;;;;2.78;1.85;;;;;;;;;;2098241;28;20828;-45
2022/06/04 05:20:04;;;;;;;4.47;2.00;;;;;;;;;;2097950;28;20139;-46
2022/06/04 05:21:09;;;;;;;2.50;1.60;;;;;;;;;;2098024;28;20139;-46
2022/06/04 05:22:10;;;;;;;2.33;1.60;;;;;;;;;;2097942;28;20124;-45
2022/06/04 05:23:11;;;;;;;2.42;1.77;;;;;;;;;;2098236;28;20132;-46
2022/06/04 05:24:15;;;;;;;1.65;1.50;;;;;;;;;;2098326;28;20052;-47
2022/06/04 05:25:16;;;;;;;2.60;1.50;;;;;;;;;;2097879;28;20532;-47
2022/06/04 05:26:17;;;;;;;2.77;1.63;;;;;;;;;;2098101;28;20044;-43
2022/06/04 05:27:18;;;;;;;2.05;1.67;;;;;;;;;;2098240;28;20365;-43
2022/06/04 05:28:19;;;;;;;2.83;1.77;;;;;;;;;;2098429;28;20063;-43
2022/06/04 05:29:20;;;;;;;2.58;1.67;;;;;;;;;;2098274;28;20369;-43
2022/06/04 05:30:24;;;;;;;1.90;1.52;;;;;;;;;;2098015;28;20059;-43
2022/06/04 05:31:24;;;;;;;2.35;1.70;;;;;;;;;;2098083;28;20139;-48
2022/06/04 05:32:27;;;;;;;1.98;1.50;;;;;;;;;;2098007;28;20041;-46
2022/06/04 05:33:27;;;;;;;;;;;;;;;;;;2098367;28;20136;-48
2022/06/04 05:34:29;;;;;;;1.77;1.50;;;;;;;;;;2097909;28;19967;-46
2022/06/04 05:35:30;;;;;;;1.40;1.23;;;;;;;;;;2098073;28;20484;-47
2022/06/04 05:36:32;;;;;;;5.00;1.60;;;;;;;;;;2098503;28;20479;-48
2022/06/04 05:37:35;;;;;;;1.90;1.42;;;;;;;;;;2098317;28;20071;-46
2022/06/04 05:38:37;;;;;;;2.25;1.67;;;;;;;;;;2098220;28;20045;-44
2022/06/04 05:39:38;;;;;;;2.03;1.50;;;;;;;;;;2098813;28;20051;-43
2022/06/04 05:40:39;;;;;;;2.85;1.48;;;;;;;;;;2097796;28;20048;-45
2022/06/04 05:41:41;;;;;;;3.10;1.45;;;;;;;;;;2096913;28;20040;-47
2022/06/04 05:42:42;;;;;;;2.25;1.52;;;;;;;;;;2098781;28;20162;-46
2022/06/04 05:43:43;;;;;;;1.97;1.60;;;;;;;;;;2098335;28;20048;-43
2022/06/04 05:44:44;;;;;;;1.50;1.20;;;;;;;;;;2099818;28;20335;-44
2022/06/04 05:45:46;;;;;;;1.80;1.30;;;;;;;;;;2107065;28;20040;-44
2022/06/04 05:46:47;;;;;;;1.48;1.33;;;;;;;;;;2107853;28;20048;-45
2022/06/04 05:47:51;;;;;;;1.52;1.27;;;;;;;;;;2106679;28;20048;-44
2022/06/04 05:48:52;;;;;;;2.63;1.67;;;;;;;;;;2107034;28;20392;-46
2022/06/04 05:49:54;;;;;;;2.35;1.50;;;;;;;;;;2106768;28;20072;-44
2022/06/04 05:50:56;;;;;;;1.83;1.27;;;;;;;;;;2107100;28;20044;-46
2022/06/04 05:51:57;;;;;;;1.50;1.40;;;;;;;;;;2106734;28;20135;-46
2022/06/04 05:52:58;;;;;;;1.92;1.33;;;;;;;;;;2106814;28;20051;-43
2022/06/04 05:54:00;;;;;;;1.93;1.60;;;;;;;;;;2106194;28;20131;-43
2022/06/04 05:55:07;;;;;;;1.50;1.20;;;;;;;;;;2106105;28;20622;-43
2022/06/04 05:56:12;;;;;;;2.20;1.42;;;;;;;;;;2106657;28;20450;-43
2022/06/04 05:57:13;;;;;;;2.28;1.70;;;;;;;;;;2106299;28;20551;-44
2022/06/04 05:58:14;;;;;;;2.13;1.48;;;;;;;;;;2106358;28;20040;-43
2022/06/04 05:59:16;;;;;;;2.08;1.77;;;;;;;;;;2106291;28;20382;-47
2022/06/04 06:00:18;;;;;;;1.88;1.42;;;;;;;;;;2106855;28;20557;-44
2022/06/04 06:01:19;;;;;;;2.03;1.40;;;;;;;;;;2106320;28;20138;-43
2022/06/04 06:02:21;;;;;;;2.28;1.50;;;;;;;;;;2106092;28;20101;-44
2022/06/04 06:03:24;;;;;;;3.78;1.50;;;;;;;;;;2106297;28;20141;-44
2022/06/04 06:04:26;;;;;;;2.17;1.20;;;;;;;;;;2106251;28;20481;-46
2022/06/04 06:05:27;;;;;;;1.92;1.25;;;;;;;;;;2106373;28;20485;-44
2022/06/04 06:06:30;;;;;;;1.85;1.48;;;;;;;;;;2106050;28;20087;-44
2022/06/04 06:07:32;;;;;;;2.05;1.52;;;;;;;;;;2106163;28;20120;-44
2022/06/04 06:08:33;;;;;;;4.63;1.60;;;;;;;;;;2106107;28;20044;-43
2022/06/04 06:09:35;;;;;;;2.15;1.85;;;;;;;;;;2106263;28;20290;-44
2022/06/04 06:10:38;;;;;;;1.58;1.40;;;;;;;;;;2106400;28;20127;-47
2022/06/04 06:11:40;;;;;;;3.90;1.48;;;;;;;;;;2098995;28;20047;-47
2022/06/04 06:12:41;;;;;;;1.77;1.38;;;;;;;;;;2097998;28;20040;-44
2022/06/04 06:13:43;;;;;;;1.90;1.40;;;;;;;;;;2097899;28;20120;-44
2022/06/04 06:14:46;;;;;;;1.70;1.40;;;;;;;;;;2097515;28;20059;-45
2022/06/04 06:15:47;;;;;;;3.13;1.42;;;;;;;;;;2097952;28;20045;-44
2022/06/04 06:16:49;;;;;;;3.33;1.83;;;;;;;;;;2097867;28;20405;-44
2022/06/04 06:17:50;;;;;;;2.17;1.50;;;;;;;;;;2097969;28;20516;-46
2022/06/04 06:18:51;;;;;;;1.73;1.23;;;;;;;;;;2098058;28;20125;-48
2022/06/04 06:19:53;;;;;;;2.13;1.70;;;;;;;;;;2097701;28;20359;-46
2022/06/04 06:20:54;;;;;;;1.75;1.33;;;;;;;;;;2097657;28;20090;-47
2022/06/04 06:21:56;;;;;;;3.50;1.45;;;;;;;;;;2097950;28;20044;-46
2022/06/04 06:22:58;;;;;;;2.28;1.52;;;;;;;;;;2097697;28;20041;-43
2022/06/04 06:23:59;;;;;;;3.45;1.55;;;;;;;;;;2098221;28;20112;-47
2022/06/04 06:25:04;;;;;;;1.65;1.48;;;;;;;;;;2097641;28;20127;-46
2022/06/04 06:26:06;;;;;;;2.65;1.60;;;;;;;;;;2097744;28;20139;-47
2022/06/04 06:27:08;;;;;;;1.88;1.20;;;;;;;;;;2097549;28;20123;-45
2022/06/04 06:28:09;;;;;;;;;;;;;;;;;;2097945;28;20515;-46